Terminal Aerodrome Forecast
Issued by NWS Cleveland, OH

Home | Current Version | Previous Version | Graphics & Text | Print | Product List | Glossary On
Versions: 1 2 3 4 5 6 7 8 9 10 11 12 13 14
000
FTUS41 KCLE 312324
TAFYNG
TAF
KYNG 312324Z 0100/0124 24008KT P6SM FEW060 SCT100
     FM010200 24006KT P6SM BKN100
     FM010800 27005KT P6SM FEW080
     FM011700 29010G18KT P6SM SCT050=

USA.gov is the U.S. government's official web portal to all federal, state and local government web resources and services.